sensor_id;sensor_type;location;lat;lon;timestamp;P1;durP1;ratioP1;P2;durP2;ratioP2
56457;SDS011;42360;42.918;12.366;2024-01-11T00:01:17;4.88;;;3.15;;
56457;SDS011;42360;42.918;12.366;2024-01-11T00:03:43;5.03;;;3.35;;
56457;SDS011;42360;42.918;12.366;2024-01-11T00:06:08;4.13;;;2.70;;
56457;SDS011;42360;42.918;12.366;2024-01-11T00:08:34;6.10;;;3.17;;
56457;SDS011;42360;42.918;12.366;2024-01-11T00:10:59;3.75;;;2.30;;
56457;SDS011;42360;42.918;12.366;2024-01-11T00:13:25;3.67;;;2.60;;
56457;SDS011;42360;42.918;12.366;2024-01-11T00:15:51;4.15;;;2.45;;
56457;SDS011;42360;42.918;12.366;2024-01-11T00:18:17;4.15;;;2.55;;
56457;SDS011;42360;42.918;12.366;2024-01-11T00:20:42;4.85;;;3.05;;
56457;SDS011;42360;42.918;12.366;2024-01-11T00:23:08;4.63;;;2.83;;
56457;SDS011;42360;42.918;12.366;2024-01-11T00:25:33;5.85;;;3.47;;
56457;SDS011;42360;42.918;12.366;2024-01-11T00:28:00;3.03;;;2.55;;
56457;SDS011;42360;42.918;12.366;2024-01-11T00:30:26;4.57;;;2.42;;
56457;SDS011;42360;42.918;12.366;2024-01-11T00:32:52;3.13;;;2.15;;
56457;SDS011;42360;42.918;12.366;2024-01-11T00:35:17;4.20;;;2.53;;
56457;SDS011;42360;42.918;12.366;2024-01-11T00:37:43;4.05;;;2.75;;
56457;SDS011;42360;42.918;12.366;2024-01-11T00:40:08;2.83;;;2.45;;
56457;SDS011;42360;42.918;12.366;2024-01-11T00:42:34;3.47;;;2.35;;
56457;SDS011;42360;42.918;12.366;2024-01-11T00:45:00;2.40;;;2.05;;
56457;SDS011;42360;42.918;12.366;2024-01-11T00:47:25;3.28;;;2.47;;
56457;SDS011;42360;42.918;12.366;2024-01-11T00:49:51;3.35;;;2.35;;
56457;SDS011;42360;42.918;12.366;2024-01-11T00:52:17;3.10;;;2.47;;
56457;SDS011;42360;42.918;12.366;2024-01-11T00:54:42;3.95;;;2.38;;
56457;SDS011;42360;42.918;12.366;2024-01-11T00:57:08;3.25;;;2.38;;
56457;SDS011;42360;42.918;12.366;2024-01-11T00:59:33;2.90;;;2.28;;
56457;SDS011;42360;42.918;12.366;2024-01-11T01:01:58;3.70;;;2.70;;
56457;SDS011;42360;42.918;12.366;2024-01-11T01:04:24;4.18;;;2.83;;
56457;SDS011;42360;42.918;12.366;2024-01-11T01:06:49;2.83;;;2.35;;
56457;SDS011;42360;42.918;12.366;2024-01-11T01:09:15;4.57;;;3.38;;
56457;SDS011;42360;42.918;12.366;2024-01-11T01:11:40;3.47;;;2.33;;
56457;SDS011;42360;42.918;12.366;2024-01-11T01:14:06;5.10;;;2.80;;
56457;SDS011;42360;42.918;12.366;2024-01-11T01:16:31;4.07;;;2.53;;
56457;SDS011;42360;42.918;12.366;2024-01-11T01:18:57;3.67;;;2.55;;
56457;SDS011;42360;42.918;12.366;2024-01-11T01:21:22;2.95;;;2.47;;
56457;SDS011;42360;42.918;12.366;2024-01-11T01:23:48;4.63;;;2.85;;
56457;SDS011;42360;42.918;12.366;2024-01-11T01:26:13;2.60;;;2.40;;
56457;SDS011;42360;42.918;12.366;2024-01-11T01:28:38;2.78;;;2.25;;
56457;SDS011;42360;42.918;12.366;2024-01-11T01:31:05;5.18;;;3.30;;
56457;SDS011;42360;42.918;12.366;2024-01-11T01:33:30;3.17;;;2.40;;
56457;SDS011;42360;42.918;12.366;2024-01-11T01:35:56;3.17;;;2.47;;
56457;SDS011;42360;42.918;12.366;2024-01-11T01:38:21;3.33;;;2.40;;
56457;SDS011;42360;42.918;12.366;2024-01-11T01:40:47;3.70;;;2.70;;
56457;SDS011;42360;42.918;12.366;2024-01-11T01:43:13;3.75;;;2.13;;
56457;SDS011;42360;42.918;12.366;2024-01-11T01:45:38;3.60;;;2.28;;
56457;SDS011;42360;42.918;12.366;2024-01-11T01:48:04;5.22;;;2.47;;
56457;SDS011;42360;42.918;12.366;2024-01-11T01:50:29;3.00;;;2.15;;
56457;SDS011;42360;42.918;12.366;2024-01-11T01:52:55;3.05;;;1.90;;
56457;SDS011;42360;42.918;12.366;2024-01-11T01:55:21;2.97;;;1.90;;
56457;SDS011;42360;42.918;12.366;2024-01-11T01:57:47;3.30;;;2.55;;
56457;SDS011;42360;42.918;12.366;2024-01-11T02:00:14;3.60;;;2.45;;
56457;SDS011;42360;42.918;12.366;2024-01-11T02:02:40;3.30;;;1.92;;
56457;SDS011;42360;42.918;12.366;2024-01-11T02:05:10;3.10;;;2.10;;
56457;SDS011;42360;42.918;12.366;2024-01-11T02:07:36;3.03;;;2.08;;
56457;SDS011;42360;42.918;12.366;2024-01-11T02:10:02;3.92;;;2.55;;
56457;SDS011;42360;42.918;12.366;2024-01-11T02:12:28;4.10;;;2.40;;
56457;SDS011;42360;42.918;12.366;2024-01-11T02:14:54;4.20;;;2.50;;
56457;SDS011;42360;42.918;12.366;2024-01-11T02:17:20;3.53;;;1.90;;
56457;SDS011;42360;42.918;12.366;2024-01-11T02:19:46;4.47;;;2.50;;
56457;SDS011;42360;42.918;12.366;2024-01-11T02:22:24;3.15;;;2.38;;
56457;SDS011;42360;42.918;12.366;2024-01-11T02:24:55;3.08;;;2.42;;
56457;SDS011;42360;42.918;12.366;2024-01-11T02:27:22;3.42;;;2.03;;
56457;SDS011;42360;42.918;12.366;2024-01-11T02:29:48;3.25;;;2.40;;
56457;SDS011;42360;42.918;12.366;2024-01-11T02:32:13;4.07;;;2.05;;
56457;SDS011;42360;42.918;12.366;2024-01-11T02:34:39;3.78;;;2.25;;
56457;SDS011;42360;42.918;12.366;2024-01-11T02:37:05;4.38;;;2.10;;
56457;SDS011;42360;42.918;12.366;2024-01-11T02:39:31;4.07;;;2.00;;
56457;SDS011;42360;42.918;12.366;2024-01-11T02:41:56;3.50;;;2.10;;
56457;SDS011;42360;42.918;12.366;2024-01-11T02:44:25;4.75;;;2.78;;
56457;SDS011;42360;42.918;12.366;2024-01-11T02:46:50;2.72;;;2.40;;
56457;SDS011;42360;42.918;12.366;2024-01-11T02:49:16;3.00;;;2.22;;
56457;SDS011;42360;42.918;12.366;2024-01-11T02:51:41;3.13;;;2.05;;
56457;SDS011;42360;42.918;12.366;2024-01-11T02:54:06;2.88;;;1.85;;
56457;SDS011;42360;42.918;12.366;2024-01-11T02:56:32;3.78;;;2.53;;
56457;SDS011;42360;42.918;12.366;2024-01-11T02:58:57;3.83;;;2.30;;
56457;SDS011;42360;42.918;12.366;2024-01-11T03:01:23;2.95;;;2.28;;
56457;SDS011;42360;42.918;12.366;2024-01-11T03:03:48;2.90;;;2.40;;
56457;SDS011;42360;42.918;12.366;2024-01-11T03:06:14;3.88;;;2.33;;
56457;SDS011;42360;42.918;12.366;2024-01-11T03:08:39;4.32;;;2.40;;
56457;SDS011;42360;42.918;12.366;2024-01-11T03:11:05;3.30;;;2.40;;
56457;SDS011;42360;42.918;12.366;2024-01-11T03:13:31;4.68;;;2.97;;
56457;SDS011;42360;42.918;12.366;2024-01-11T03:15:56;4.47;;;2.75;;
56457;SDS011;42360;42.918;12.366;2024-01-11T03:18:22;4.18;;;2.53;;
56457;SDS011;42360;42.918;12.366;2024-01-11T03:20:48;3.25;;;2.55;;
56457;SDS011;42360;42.918;12.366;2024-01-11T03:23:13;5.63;;;2.67;;
56457;SDS011;42360;42.918;12.366;2024-01-11T03:25:38;2.72;;;2.20;;
56457;SDS011;42360;42.918;12.366;2024-01-11T03:28:04;4.97;;;2.42;;
56457;SDS011;42360;42.918;12.366;2024-01-11T03:30:29;5.40;;;2.50;;
56457;SDS011;42360;42.918;12.366;2024-01-11T03:32:55;3.67;;;1.83;;
56457;SDS011;42360;42.918;12.366;2024-01-11T03:35:20;4.25;;;2.83;;
56457;SDS011;42360;42.918;12.366;2024-01-11T03:37:46;3.25;;;2.10;;
56457;SDS011;42360;42.918;12.366;2024-01-11T03:40:12;3.50;;;2.50;;
56457;SDS011;42360;42.918;12.366;2024-01-11T03:42:37;2.63;;;2.28;;
56457;SDS011;42360;42.918;12.366;2024-01-11T03:45:03;3.22;;;2.08;;
56457;SDS011;42360;42.918;12.366;2024-01-11T03:47:29;4.63;;;2.65;;
56457;SDS011;42360;42.918;12.366;2024-01-11T03:49:55;2.78;;;1.88;;
56457;SDS011;42360;42.918;12.366;2024-01-11T03:52:20;2.45;;;1.95;;
56457;SDS011;42360;42.918;12.366;2024-01-11T03:54:46;2.20;;;1.80;;
56457;SDS011;42360;42.918;12.366;2024-01-11T03:57:11;1.73;;;1.58;;
56457;SDS011;42360;42.918;12.366;2024-01-11T03:59:36;2.83;;;2.00;;
56457;SDS011;42360;42.918;12.366;2024-01-11T04:02:02;2.83;;;2.17;;
56457;SDS011;42360;42.918;12.366;2024-01-11T04:04:27;2.05;;;1.58;;
56457;SDS011;42360;42.918;12.366;2024-01-11T04:06:53;3.30;;;2.30;;
56457;SDS011;42360;42.918;12.366;2024-01-11T04:09:18;1.75;;;1.55;;
56457;SDS011;42360;42.918;12.366;2024-01-11T04:11:45;2.65;;;2.33;;
56457;SDS011;42360;42.918;12.366;2024-01-11T04:14:11;2.65;;;1.83;;
56457;SDS011;42360;42.918;12.366;2024-01-11T04:16:40;2.72;;;1.45;;
56457;SDS011;42360;42.918;12.366;2024-01-11T04:19:06;3.20;;;1.90;;
56457;SDS011;42360;42.918;12.366;2024-01-11T04:21:31;2.60;;;2.20;;
56457;SDS011;42360;42.918;12.366;2024-01-11T04:23:57;2.50;;;1.75;;
56457;SDS011;42360;42.918;12.366;2024-01-11T04:26:22;2.72;;;2.00;;
56457;SDS011;42360;42.918;12.366;2024-01-11T04:28:48;3.22;;;1.92;;
56457;SDS011;42360;42.918;12.366;2024-01-11T04:31:14;2.95;;;2.15;;
56457;SDS011;42360;42.918;12.366;2024-01-11T04:33:42;3.97;;;2.10;;
56457;SDS011;42360;42.918;12.366;2024-01-11T04:36:08;3.50;;;2.10;;
56457;SDS011;42360;42.918;12.366;2024-01-11T04:38:34;4.63;;;2.60;;
56457;SDS011;42360;42.918;12.366;2024-01-11T04:40:59;3.83;;;1.95;;
56457;SDS011;42360;42.918;12.366;2024-01-11T04:43:25;2.40;;;1.98;;
56457;SDS011;42360;42.918;12.366;2024-01-11T04:45:51;2.92;;;1.88;;
56457;SDS011;42360;42.918;12.366;2024-01-11T04:48:16;4.40;;;1.92;;
56457;SDS011;42360;42.918;12.366;2024-01-11T04:50:42;3.90;;;2.08;;
56457;SDS011;42360;42.918;12.366;2024-01-11T04:53:08;2.60;;;2.20;;
56457;SDS011;42360;42.918;12.366;2024-01-11T04:55:34;4.32;;;2.67;;
56457;SDS011;42360;42.918;12.366;2024-01-11T04:57:59;3.00;;;2.42;;
56457;SDS011;42360;42.918;12.366;2024-01-11T05:00:25;2.40;;;2.20;;
56457;SDS011;42360;42.918;12.366;2024-01-11T05:02:50;3.25;;;2.17;;
56457;SDS011;42360;42.918;12.366;2024-01-11T05:05:16;3.08;;;2.15;;
56457;SDS011;42360;42.918;12.366;2024-01-11T05:07:41;2.88;;;2.17;;
56457;SDS011;42360;42.918;12.366;2024-01-11T05:10:07;3.20;;;2.28;;
56457;SDS011;42360;42.918;12.366;2024-01-11T05:12:32;2.05;;;1.73;;
56457;SDS011;42360;42.918;12.366;2024-01-11T05:14:58;2.42;;;1.92;;
56457;SDS011;42360;42.918;12.366;2024-01-11T05:17:24;1.92;;;1.73;;
56457;SDS011;42360;42.918;12.366;2024-01-11T05:19:50;2.22;;;1.80;;
56457;SDS011;42360;42.918;12.366;2024-01-11T05:22:16;2.10;;;1.90;;
56457;SDS011;42360;42.918;12.366;2024-01-11T05:24:42;3.33;;;1.80;;
56457;SDS011;42360;42.918;12.366;2024-01-11T05:27:08;2.60;;;1.92;;
56457;SDS011;42360;42.918;12.366;2024-01-11T05:29:33;2.83;;;2.15;;
56457;SDS011;42360;42.918;12.366;2024-01-11T05:31:59;4.40;;;1.88;;
56457;SDS011;42360;42.918;12.366;2024-01-11T05:34:24;2.35;;;2.00;;
56457;SDS011;42360;42.918;12.366;2024-01-11T05:36:50;4.10;;;2.50;;
56457;SDS011;42360;42.918;12.366;2024-01-11T05:39:15;3.05;;;2.25;;
56457;SDS011;42360;42.918;12.366;2024-01-11T05:41:43;2.75;;;2.03;;
56457;SDS011;42360;42.918;12.366;2024-01-11T05:44:09;4.65;;;2.28;;
56457;SDS011;42360;42.918;12.366;2024-01-11T05:46:35;3.03;;;2.13;;
56457;SDS011;42360;42.918;12.366;2024-01-11T05:49:00;3.38;;;2.15;;
56457;SDS011;42360;42.918;12.366;2024-01-11T05:51:26;2.70;;;2.00;;
56457;SDS011;42360;42.918;12.366;2024-01-11T05:53:52;3.13;;;2.33;;
56457;SDS011;42360;42.918;12.366;2024-01-11T05:56:18;3.47;;;2.00;;
56457;SDS011;42360;42.918;12.366;2024-01-11T05:58:44;2.97;;;1.83;;
56457;SDS011;42360;42.918;12.366;2024-01-11T06:01:09;3.83;;;2.40;;
56457;SDS011;42360;42.918;12.366;2024-01-11T06:03:35;5.82;;;2.60;;
56457;SDS011;42360;42.918;12.366;2024-01-11T06:06:01;2.30;;;2.08;;
56457;SDS011;42360;42.918;12.366;2024-01-11T06:08:28;3.22;;;2.17;;
56457;SDS011;42360;42.918;12.366;2024-01-11T06:10:54;3.50;;;2.50;;
56457;SDS011;42360;42.918;12.366;2024-01-11T06:13:19;4.38;;;2.53;;
56457;SDS011;42360;42.918;12.366;2024-01-11T06:15:45;3.90;;;3.20;;
56457;SDS011;42360;42.918;12.366;2024-01-11T06:18:11;4.50;;;2.80;;
56457;SDS011;42360;42.918;12.366;2024-01-11T06:20:36;3.72;;;2.40;;
56457;SDS011;42360;42.918;12.366;2024-01-11T06:23:01;4.78;;;2.90;;
56457;SDS011;42360;42.918;12.366;2024-01-11T06:25:27;3.80;;;2.50;;
56457;SDS011;42360;42.918;12.366;2024-01-11T06:27:53;5.00;;;3.10;;
56457;SDS011;42360;42.918;12.366;2024-01-11T06:30:18;4.32;;;3.22;;
56457;SDS011;42360;42.918;12.366;2024-01-11T06:32:43;5.07;;;3.78;;
56457;SDS011;42360;42.918;12.366;2024-01-11T06:35:09;4.28;;;3.10;;
56457;SDS011;42360;42.918;12.366;2024-01-11T06:37:34;8.07;;;4.70;;
56457;SDS011;42360;42.918;12.366;2024-01-11T06:40:00;12.35;;;6.28;;
56457;SDS011;42360;42.918;12.366;2024-01-11T06:42:25;5.53;;;3.92;;
56457;SDS011;42360;42.918;12.366;2024-01-11T06:44:51;6.55;;;4.22;;
56457;SDS011;42360;42.918;12.366;2024-01-11T06:47:16;6.03;;;4.30;;
56457;SDS011;42360;42.918;12.366;2024-01-11T06:49:42;6.32;;;5.22;;
56457;SDS011;42360;42.918;12.366;2024-01-11T06:52:07;5.82;;;3.42;;
56457;SDS011;42360;42.918;12.366;2024-01-11T06:54:33;4.43;;;2.80;;
56457;SDS011;42360;42.918;12.366;2024-01-11T06:56:58;5.43;;;3.22;;
56457;SDS011;42360;42.918;12.366;2024-01-11T06:59:24;4.65;;;3.13;;
56457;SDS011;42360;42.918;12.366;2024-01-11T07:01:49;4.57;;;3.20;;
56457;SDS011;42360;42.918;12.366;2024-01-11T07:04:15;4.22;;;3.15;;
56457;SDS011;42360;42.918;12.366;2024-01-11T07:06:43;23.05;;;12.15;;
56457;SDS011;42360;42.918;12.366;2024-01-11T07:09:08;39.08;;;17.73;;
56457;SDS011;42360;42.918;12.366;2024-01-11T07:11:36;16.35;;;8.52;;
56457;SDS011;42360;42.918;12.366;2024-01-11T07:14:01;5.32;;;3.78;;
56457;SDS011;42360;42.918;12.366;2024-01-11T07:16:29;15.93;;;10.40;;
56457;SDS011;42360;42.918;12.366;2024-01-11T07:18:54;11.10;;;6.45;;
56457;SDS011;42360;42.918;12.366;2024-01-11T07:21:23;9.55;;;5.03;;
56457;SDS011;42360;42.918;12.366;2024-01-11T07:23:58;9.07;;;5.57;;
56457;SDS011;42360;42.918;12.366;2024-01-11T07:26:24;13.63;;;6.75;;
56457;SDS011;42360;42.918;12.366;2024-01-11T07:28:50;8.90;;;5.90;;
56457;SDS011;42360;42.918;12.366;2024-01-11T07:31:16;9.63;;;5.35;;
56457;SDS011;42360;42.918;12.366;2024-01-11T07:33:41;9.95;;;5.65;;
56457;SDS011;42360;42.918;12.366;2024-01-11T07:36:07;7.47;;;3.88;;
56457;SDS011;42360;42.918;12.366;2024-01-11T07:38:34;5.55;;;4.10;;
56457;SDS011;42360;42.918;12.366;2024-01-11T07:40:59;7.03;;;4.63;;
56457;SDS011;42360;42.918;12.366;2024-01-11T07:43:25;17.33;;;9.63;;
56457;SDS011;42360;42.918;12.366;2024-01-11T07:45:51;11.98;;;7.80;;
56457;SDS011;42360;42.918;12.366;2024-01-11T07:48:17;6.30;;;5.18;;
56457;SDS011;42360;42.918;12.366;2024-01-11T07:50:42;5.10;;;4.35;;
56457;SDS011;42360;42.918;12.366;2024-01-11T07:53:08;4.93;;;4.28;;
56457;SDS011;42360;42.918;12.366;2024-01-11T07:55:33;6.28;;;4.18;;
56457;SDS011;42360;42.918;12.366;2024-01-11T07:57:58;6.53;;;4.80;;
56457;SDS011;42360;42.918;12.366;2024-01-11T08:00:24;6.50;;;4.22;;
56457;SDS011;42360;42.918;12.366;2024-01-11T08:02:50;5.03;;;3.72;;
56457;SDS011;42360;42.918;12.366;2024-01-11T08:05:15;4.95;;;3.78;;
56457;SDS011;42360;42.918;12.366;2024-01-11T08:07:41;6.28;;;4.07;;
56457;SDS011;42360;42.918;12.366;2024-01-11T08:10:09;6.10;;;4.32;;
56457;SDS011;42360;42.918;12.366;2024-01-11T08:12:35;7.10;;;4.57;;
56457;SDS011;42360;42.918;12.366;2024-01-11T08:15:01;15.93;;;8.68;;
56457;SDS011;42360;42.918;12.366;2024-01-11T08:17:28;6.20;;;3.80;;
56457;SDS011;42360;42.918;12.366;2024-01-11T08:19:53;6.95;;;4.30;;
56457;SDS011;42360;42.918;12.366;2024-01-11T08:22:20;3.75;;;3.15;;
56457;SDS011;42360;42.918;12.366;2024-01-11T08:24:46;4.82;;;3.08;;
56457;SDS011;42360;42.918;12.366;2024-01-11T08:27:12;5.05;;;3.13;;
56457;SDS011;42360;42.918;12.366;2024-01-11T08:29:38;4.97;;;3.38;;
56457;SDS011;42360;42.918;12.366;2024-01-11T08:32:04;5.88;;;3.40;;
56457;SDS011;42360;42.918;12.366;2024-01-11T08:34:30;5.32;;;3.10;;
56457;SDS011;42360;42.918;12.366;2024-01-11T08:36:56;5.50;;;3.25;;
56457;SDS011;42360;42.918;12.366;2024-01-11T08:39:21;4.32;;;2.85;;
56457;SDS011;42360;42.918;12.366;2024-01-11T08:41:48;7.07;;;3.17;;
56457;SDS011;42360;42.918;12.366;2024-01-11T08:44:13;5.50;;;3.33;;
56457;SDS011;42360;42.918;12.366;2024-01-11T08:46:39;4.57;;;3.25;;
56457;SDS011;42360;42.918;12.366;2024-01-11T08:49:04;5.70;;;4.30;;
56457;SDS011;42360;42.918;12.366;2024-01-11T08:51:30;5.70;;;3.85;;
56457;SDS011;42360;42.918;12.366;2024-01-11T08:53:58;5.97;;;3.85;;
56457;SDS011;42360;42.918;12.366;2024-01-11T08:56:24;4.53;;;2.90;;
56457;SDS011;42360;42.918;12.366;2024-01-11T08:58:50;4.90;;;3.72;;
56457;SDS011;42360;42.918;12.366;2024-01-11T09:01:16;3.42;;;2.58;;
56457;SDS011;42360;42.918;12.366;2024-01-11T09:03:43;3.83;;;2.60;;
56457;SDS011;42360;42.918;12.366;2024-01-11T09:06:08;4.53;;;2.78;;
56457;SDS011;42360;42.918;12.366;2024-01-11T09:08:34;4.63;;;4.13;;
56457;SDS011;42360;42.918;12.366;2024-01-11T09:10:59;4.40;;;3.60;;
56457;SDS011;42360;42.918;12.366;2024-01-11T09:13:28;4.05;;;3.38;;
56457;SDS011;42360;42.918;12.366;2024-01-11T09:15:54;4.45;;;3.10;;
56457;SDS011;42360;42.918;12.366;2024-01-11T09:18:20;4.05;;;2.60;;
56457;SDS011;42360;42.918;12.366;2024-01-11T09:20:46;3.88;;;2.63;;
56457;SDS011;42360;42.918;12.366;2024-01-11T09:23:12;4.65;;;3.42;;
56457;SDS011;42360;42.918;12.366;2024-01-11T09:25:37;4.05;;;3.08;;
56457;SDS011;42360;42.918;12.366;2024-01-11T09:28:03;4.20;;;2.65;;
56457;SDS011;42360;42.918;12.366;2024-01-11T09:30:29;4.28;;;2.60;;
56457;SDS011;42360;42.918;12.366;2024-01-11T09:32:54;3.75;;;2.90;;
56457;SDS011;42360;42.918;12.366;2024-01-11T09:35:21;4.07;;;2.72;;
56457;SDS011;42360;42.918;12.366;2024-01-11T09:37:48;3.13;;;2.47;;
56457;SDS011;42360;42.918;12.366;2024-01-11T09:40:14;5.65;;;3.03;;
56457;SDS011;42360;42.918;12.366;2024-01-11T09:42:39;3.50;;;2.55;;
56457;SDS011;42360;42.918;12.366;2024-01-11T09:45:15;4.35;;;2.80;;
56457;SDS011;42360;42.918;12.366;2024-01-11T09:47:41;4.10;;;2.88;;
56457;SDS011;42360;42.918;12.366;2024-01-11T09:50:07;4.50;;;3.40;;
56457;SDS011;42360;42.918;12.366;2024-01-11T09:52:33;4.97;;;2.63;;
56457;SDS011;42360;42.918;12.366;2024-01-11T09:54:59;4.75;;;2.90;;
56457;SDS011;42360;42.918;12.366;2024-01-11T09:57:26;3.28;;;2.72;;
56457;SDS011;42360;42.918;12.366;2024-01-11T09:59:54;4.28;;;2.92;;
56457;SDS011;42360;42.918;12.366;2024-01-11T10:02:21;5.20;;;3.63;;
56457;SDS011;42360;42.918;12.366;2024-01-11T10:04:48;5.07;;;2.75;;
56457;SDS011;42360;42.918;12.366;2024-01-11T10:07:13;3.72;;;2.70;;
56457;SDS011;42360;42.918;12.366;2024-01-11T10:09:41;3.40;;;3.10;;
56457;SDS011;42360;42.918;12.366;2024-01-11T10:12:07;4.57;;;4.00;;
56457;SDS011;42360;42.918;12.366;2024-01-11T10:14:34;3.45;;;2.95;;
56457;SDS011;42360;42.918;12.366;2024-01-11T10:16:59;3.35;;;2.63;;
56457;SDS011;42360;42.918;12.366;2024-01-11T10:19:25;3.35;;;2.85;;
56457;SDS011;42360;42.918;12.366;2024-01-11T10:21:50;3.67;;;3.38;;
56457;SDS011;42360;42.918;12.366;2024-01-11T10:24:19;4.95;;;3.90;;
56457;SDS011;42360;42.918;12.366;2024-01-11T10:26:51;3.35;;;3.05;;
56457;SDS011;42360;42.918;12.366;2024-01-11T10:29:17;4.72;;;2.78;;
56457;SDS011;42360;42.918;12.366;2024-01-11T10:31:43;3.17;;;2.22;;
56457;SDS011;42360;42.918;12.366;2024-01-11T10:34:08;3.17;;;2.13;;
56457;SDS011;42360;42.918;12.366;2024-01-11T10:36:34;3.08;;;2.35;;
56457;SDS011;42360;42.918;12.366;2024-01-11T10:39:01;4.30;;;2.35;;
56457;SDS011;42360;42.918;12.366;2024-01-11T10:41:29;3.33;;;2.15;;
56457;SDS011;42360;42.918;12.366;2024-01-11T10:43:58;2.65;;;2.28;;
56457;SDS011;42360;42.918;12.366;2024-01-11T10:46:25;3.13;;;2.15;;
56457;SDS011;42360;42.918;12.366;2024-01-11T10:48:51;3.30;;;2.05;;
56457;SDS011;42360;42.918;12.366;2024-01-11T10:51:22;3.42;;;3.00;;
56457;SDS011;42360;42.918;12.366;2024-01-11T10:53:48;3.00;;;2.38;;
56457;SDS011;42360;42.918;12.366;2024-01-11T10:56:16;2.97;;;2.05;;
56457;SDS011;42360;42.918;12.366;2024-01-11T10:58:42;2.65;;;1.95;;
56457;SDS011;42360;42.918;12.366;2024-01-11T11:01:08;2.55;;;1.80;;
56457;SDS011;42360;42.918;12.366;2024-01-11T11:03:35;2.90;;;2.60;;
56457;SDS011;42360;42.918;12.366;2024-01-11T11:06:01;4.25;;;3.83;;
56457;SDS011;42360;42.918;12.366;2024-01-11T11:08:27;3.58;;;3.28;;
56457;SDS011;42360;42.918;12.366;2024-01-11T11:10:54;1.98;;;1.77;;
56457;SDS011;42360;42.918;12.366;2024-01-11T11:13:25;2.00;;;1.70;;
56457;SDS011;42360;42.918;12.366;2024-01-11T11:15:52;2.10;;;1.90;;
56457;SDS011;42360;42.918;12.366;2024-01-11T11:18:18;2.45;;;2.10;;
56457;SDS011;42360;42.918;12.366;2024-01-11T11:20:46;1.90;;;1.80;;
56457;SDS011;42360;42.918;12.366;2024-01-11T11:23:13;2.55;;;1.40;;
56457;SDS011;42360;42.918;12.366;2024-01-11T11:25:40;4.22;;;2.80;;
56457;SDS011;42360;42.918;12.366;2024-01-11T11:28:06;4.07;;;2.53;;
56457;SDS011;42360;42.918;12.366;2024-01-11T11:30:38;3.83;;;2.67;;
56457;SDS011;42360;42.918;12.366;2024-01-11T11:33:18;2.53;;;1.80;;
56457;SDS011;42360;42.918;12.366;2024-01-11T11:35:59;2.35;;;2.10;;
56457;SDS011;42360;42.918;12.366;2024-01-11T11:38:28;4.45;;;2.80;;
56457;SDS011;42360;42.918;12.366;2024-01-11T11:40:56;2.80;;;2.27;;
56457;SDS011;42360;42.918;12.366;2024-01-11T11:43:23;2.42;;;2.10;;
56457;SDS011;42360;42.918;12.366;2024-01-11T11:45:49;2.25;;;1.92;;
56457;SDS011;42360;42.918;12.366;2024-01-11T11:51:14;2.25;;;2.05;;
56457;SDS011;42360;42.918;12.366;2024-01-11T11:53:41;2.75;;;2.33;;
56457;SDS011;42360;42.918;12.366;2024-01-11T11:56:07;2.90;;;1.90;;
56457;SDS011;42360;42.918;12.366;2024-01-11T11:58:34;2.47;;;2.03;;
56457;SDS011;42360;42.918;12.366;2024-01-11T12:01:00;3.53;;;2.10;;
56457;SDS011;42360;42.918;12.366;2024-01-11T12:03:28;3.92;;;1.98;;
56457;SDS011;42360;42.918;12.366;2024-01-11T12:05:55;2.05;;;1.73;;
56457;SDS011;42360;42.918;12.366;2024-01-11T12:08:21;3.38;;;2.55;;
56457;SDS011;42360;42.918;12.366;2024-01-11T12:10:46;2.03;;;1.70;;
56457;SDS011;42360;42.918;12.366;2024-01-11T12:13:12;3.30;;;3.00;;
56457;SDS011;42360;42.918;12.366;2024-01-11T12:15:38;1.77;;;1.67;;
56457;SDS011;42360;42.918;12.366;2024-01-11T12:18:03;2.40;;;2.20;;
56457;SDS011;42360;42.918;12.366;2024-01-11T12:20:29;1.90;;;1.73;;
56457;SDS011;42360;42.918;12.366;2024-01-11T12:22:54;3.25;;;1.90;;
56457;SDS011;42360;42.918;12.366;2024-01-11T12:25:21;2.80;;;2.08;;
56457;SDS011;42360;42.918;12.366;2024-01-11T12:27:47;2.30;;;2.00;;
56457;SDS011;42360;42.918;12.366;2024-01-11T12:30:12;2.17;;;1.98;;
56457;SDS011;42360;42.918;12.366;2024-01-11T12:32:42;3.25;;;1.95;;
56457;SDS011;42360;42.918;12.366;2024-01-11T12:35:08;2.78;;;2.00;;
56457;SDS011;42360;42.918;12.366;2024-01-11T12:37:33;2.65;;;1.80;;
56457;SDS011;42360;42.918;12.366;2024-01-11T12:39:59;1.80;;;1.70;;
56457;SDS011;42360;42.918;12.366;2024-01-11T12:42:26;1.88;;;1.73;;
56457;SDS011;42360;42.918;12.366;2024-01-11T12:44:52;2.63;;;2.13;;
56457;SDS011;42360;42.918;12.366;2024-01-11T12:47:17;1.90;;;1.70;;
56457;SDS011;42360;42.918;12.366;2024-01-11T12:49:43;2.80;;;1.98;;
56457;SDS011;42360;42.918;12.366;2024-01-11T12:52:18;2.50;;;1.88;;
56457;SDS011;42360;42.918;12.366;2024-01-11T12:54:44;3.05;;;2.15;;
56457;SDS011;42360;42.918;12.366;2024-01-11T12:57:17;2.03;;;1.73;;
56457;SDS011;42360;42.918;12.366;2024-01-11T12:59:44;3.00;;;2.00;;
56457;SDS011;42360;42.918;12.366;2024-01-11T13:02:10;2.78;;;1.90;;
56457;SDS011;42360;42.918;12.366;2024-01-11T13:04:38;1.85;;;1.60;;
56457;SDS011;42360;42.918;12.366;2024-01-11T13:07:04;2.33;;;1.90;;
56457;SDS011;42360;42.918;12.366;2024-01-11T13:09:30;3.03;;;1.90;;
56457;SDS011;42360;42.918;12.366;2024-01-11T13:11:55;2.20;;;1.63;;
56457;SDS011;42360;42.918;12.366;2024-01-11T13:14:21;3.85;;;2.10;;
56457;SDS011;42360;42.918;12.366;2024-01-11T13:16:46;2.42;;;1.90;;
56457;SDS011;42360;42.918;12.366;2024-01-11T13:19:13;2.30;;;1.80;;
56457;SDS011;42360;42.918;12.366;2024-01-11T13:21:39;1.85;;;1.65;;
56457;SDS011;42360;42.918;12.366;2024-01-11T13:24:06;2.35;;;1.90;;
56457;SDS011;42360;42.918;12.366;2024-01-11T13:26:33;2.20;;;2.00;;
56457;SDS011;42360;42.918;12.366;2024-01-11T13:28:59;2.35;;;2.00;;
56457;SDS011;42360;42.918;12.366;2024-01-11T13:31:24;2.05;;;1.88;;
56457;SDS011;42360;42.918;12.366;2024-01-11T13:33:50;2.30;;;2.00;;
56457;SDS011;42360;42.918;12.366;2024-01-11T13:36:15;2.97;;;2.10;;
56457;SDS011;42360;42.918;12.366;2024-01-11T13:38:41;2.47;;;2.13;;
56457;SDS011;42360;42.918;12.366;2024-01-11T13:41:06;3.95;;;2.50;;
56457;SDS011;42360;42.918;12.366;2024-01-11T13:43:33;2.10;;;1.85;;
56457;SDS011;42360;42.918;12.366;2024-01-11T13:45:59;2.10;;;1.83;;
56457;SDS011;42360;42.918;12.366;2024-01-11T13:48:25;2.72;;;1.90;;
56457;SDS011;42360;42.918;12.366;2024-01-11T13:50:51;2.40;;;1.90;;
56457;SDS011;42360;42.918;12.366;2024-01-11T13:53:16;2.83;;;2.20;;
56457;SDS011;42360;42.918;12.366;2024-01-11T13:55:41;2.40;;;1.90;;
56457;SDS011;42360;42.918;12.366;2024-01-11T13:58:08;3.83;;;2.60;;
56457;SDS011;42360;42.918;12.366;2024-01-11T14:00:34;2.92;;;2.22;;
56457;SDS011;42360;42.918;12.366;2024-01-11T14:02:59;4.43;;;3.10;;
56457;SDS011;42360;42.918;12.366;2024-01-11T14:05:25;4.05;;;2.40;;
56457;SDS011;42360;42.918;12.366;2024-01-11T14:07:51;2.47;;;2.13;;
56457;SDS011;42360;42.918;12.366;2024-01-11T14:10:22;2.20;;;2.00;;
56457;SDS011;42360;42.918;12.366;2024-01-11T14:12:48;5.38;;;3.90;;
56457;SDS011;42360;42.918;12.366;2024-01-11T14:15:15;4.05;;;2.78;;
56457;SDS011;42360;42.918;12.366;2024-01-11T14:17:40;3.22;;;2.88;;
56457;SDS011;42360;42.918;12.366;2024-01-11T14:20:06;3.28;;;2.88;;
56457;SDS011;42360;42.918;12.366;2024-01-11T14:22:37;4.80;;;3.00;;
56457;SDS011;42360;42.918;12.366;2024-01-11T14:25:02;3.42;;;2.83;;
56457;SDS011;42360;42.918;12.366;2024-01-11T14:27:28;2.67;;;2.45;;
56457;SDS011;42360;42.918;12.366;2024-01-11T14:29:55;3.80;;;2.63;;